sensor_id;sensor_type;location;lat;lon;timestamp;P1;durP1;ratioP1;P2;durP2;ratioP2
59474;SDS011;45288;51.136;16.928;2022-08-19T00:00:15;11.20;;;9.52;;
59474;SDS011;45288;51.136;16.928;2022-08-19T00:02:42;12.30;;;10.10;;
59474;SDS011;45288;51.136;16.928;2022-08-19T00:05:09;11.52;;;9.40;;
59474;SDS011;45288;51.136;16.928;2022-08-19T00:07:35;12.90;;;9.65;;
59474;SDS011;45288;51.136;16.928;2022-08-19T00:10:00;10.77;;;9.67;;
59474;SDS011;45288;51.136;16.928;2022-08-19T00:12:26;10.40;;;9.35;;
59474;SDS011;45288;51.136;16.928;2022-08-19T00:14:52;11.60;;;9.77;;
59474;SDS011;45288;51.136;16.928;2022-08-19T00:17:19;10.32;;;8.88;;
59474;SDS011;45288;51.136;16.928;2022-08-19T00:19:45;11.05;;;9.65;;
59474;SDS011;45288;51.136;16.928;2022-08-19T00:22:11;10.88;;;9.77;;
59474;SDS011;45288;51.136;16.928;2022-08-19T00:24:37;11.18;;;9.88;;
59474;SDS011;45288;51.136;16.928;2022-08-19T00:27:04;13.23;;;10.13;;
59474;SDS011;45288;51.136;16.928;2022-08-19T00:29:31;11.20;;;9.82;;
59474;SDS011;45288;51.136;16.928;2022-08-19T00:31:56;13.03;;;9.70;;
59474;SDS011;45288;51.136;16.928;2022-08-19T00:34:24;13.63;;;10.45;;
59474;SDS011;45288;51.136;16.928;2022-08-19T00:36:50;13.32;;;10.02;;
59474;SDS011;45288;51.136;16.928;2022-08-19T00:39:16;11.53;;;10.07;;
59474;SDS011;45288;51.136;16.928;2022-08-19T00:41:42;11.18;;;9.98;;
59474;SDS011;45288;51.136;16.928;2022-08-19T00:44:13;12.98;;;10.43;;
59474;SDS011;45288;51.136;16.928;2022-08-19T00:46:40;12.25;;;9.88;;
59474;SDS011;45288;51.136;16.928;2022-08-19T00:49:09;13.25;;;10.07;;
59474;SDS011;45288;51.136;16.928;2022-08-19T00:51:35;11.65;;;9.88;;
59474;SDS011;45288;51.136;16.928;2022-08-19T00:54:01;10.98;;;9.35;;
59474;SDS011;45288;51.136;16.928;2022-08-19T00:56:28;13.48;;;10.05;;
59474;SDS011;45288;51.136;16.928;2022-08-19T00:58:55;10.88;;;9.80;;
59474;SDS011;45288;51.136;16.928;2022-08-19T01:01:21;11.60;;;9.82;;
59474;SDS011;45288;51.136;16.928;2022-08-19T01:03:47;12.10;;;10.25;;
59474;SDS011;45288;51.136;16.928;2022-08-19T01:06:13;10.60;;;9.60;;
59474;SDS011;45288;51.136;16.928;2022-08-19T01:08:39;12.23;;;9.70;;
59474;SDS011;45288;51.136;16.928;2022-08-19T01:11:05;11.88;;;9.35;;
59474;SDS011;45288;51.136;16.928;2022-08-19T01:13:36;11.57;;;9.52;;
59474;SDS011;45288;51.136;16.928;2022-08-19T01:16:03;11.10;;;9.43;;
59474;SDS011;45288;51.136;16.928;2022-08-19T01:18:30;10.95;;;9.15;;
59474;SDS011;45288;51.136;16.928;2022-08-19T01:20:58;12.35;;;9.70;;
59474;SDS011;45288;51.136;16.928;2022-08-19T01:23:24;10.60;;;9.32;;
59474;SDS011;45288;51.136;16.928;2022-08-19T01:26:18;12.52;;;9.57;;
59474;SDS011;45288;51.136;16.928;2022-08-19T01:28:44;10.68;;;9.25;;
59474;SDS011;45288;51.136;16.928;2022-08-19T01:31:16;10.53;;;9.43;;
59474;SDS011;45288;51.136;16.928;2022-08-19T01:33:41;13.07;;;9.38;;
59474;SDS011;45288;51.136;16.928;2022-08-19T01:36:09;10.48;;;9.18;;
59474;SDS011;45288;51.136;16.928;2022-08-19T01:38:38;11.77;;;9.65;;
59474;SDS011;45288;51.136;16.928;2022-08-19T01:41:05;10.15;;;8.95;;
59474;SDS011;45288;51.136;16.928;2022-08-19T01:43:31;10.52;;;9.30;;
59474;SDS011;45288;51.136;16.928;2022-08-19T01:45:59;11.20;;;9.05;;
59474;SDS011;45288;51.136;16.928;2022-08-19T01:48:26;11.13;;;9.52;;
59474;SDS011;45288;51.136;16.928;2022-08-19T01:50:52;11.75;;;9.40;;
59474;SDS011;45288;51.136;16.928;2022-08-19T01:53:17;11.95;;;9.80;;
59474;SDS011;45288;51.136;16.928;2022-08-19T01:55:43;11.07;;;9.77;;
59474;SDS011;45288;51.136;16.928;2022-08-19T01:58:14;10.38;;;9.38;;
59474;SDS011;45288;51.136;16.928;2022-08-19T02:00:40;13.32;;;9.30;;
59474;SDS011;45288;51.136;16.928;2022-08-19T02:03:06;12.57;;;9.70;;
59474;SDS011;45288;51.136;16.928;2022-08-19T02:05:32;11.43;;;9.33;;
59474;SDS011;45288;51.136;16.928;2022-08-19T02:07:57;10.63;;;9.48;;
59474;SDS011;45288;51.136;16.928;2022-08-19T02:10:24;11.10;;;9.30;;
59474;SDS011;45288;51.136;16.928;2022-08-19T02:12:50;12.00;;;9.60;;
59474;SDS011;45288;51.136;16.928;2022-08-19T02:15:16;11.27;;;9.60;;
59474;SDS011;45288;51.136;16.928;2022-08-19T02:17:42;11.85;;;9.45;;
59474;SDS011;45288;51.136;16.928;2022-08-19T02:20:08;11.77;;;9.50;;
59474;SDS011;45288;51.136;16.928;2022-08-19T02:22:34;11.77;;;9.85;;
59474;SDS011;45288;51.136;16.928;2022-08-19T02:25:00;11.27;;;9.77;;
59474;SDS011;45288;51.136;16.928;2022-08-19T02:27:26;10.80;;;9.70;;
59474;SDS011;45288;51.136;16.928;2022-08-19T02:29:52;11.32;;;9.80;;
59474;SDS011;45288;51.136;16.928;2022-08-19T02:32:18;11.90;;;10.10;;
59474;SDS011;45288;51.136;16.928;2022-08-19T02:34:45;11.20;;;9.93;;
59474;SDS011;45288;51.136;16.928;2022-08-19T02:37:11;11.05;;;9.50;;
59474;SDS011;45288;51.136;16.928;2022-08-19T02:39:57;11.20;;;9.48;;
59474;SDS011;45288;51.136;16.928;2022-08-19T02:42:23;11.15;;;9.50;;
59474;SDS011;45288;51.136;16.928;2022-08-19T02:44:49;13.47;;;10.10;;
59474;SDS011;45288;51.136;16.928;2022-08-19T02:47:15;11.18;;;10.02;;
59474;SDS011;45288;51.136;16.928;2022-08-19T02:49:41;11.93;;;9.90;;
59474;SDS011;45288;51.136;16.928;2022-08-19T02:52:06;10.77;;;9.68;;
59474;SDS011;45288;51.136;16.928;2022-08-19T02:54:32;12.87;;;9.80;;
59474;SDS011;45288;51.136;16.928;2022-08-19T02:56:58;12.38;;;10.30;;
59474;SDS011;45288;51.136;16.928;2022-08-19T02:59:24;11.05;;;9.95;;
59474;SDS011;45288;51.136;16.928;2022-08-19T03:01:51;11.75;;;10.30;;
59474;SDS011;45288;51.136;16.928;2022-08-19T03:04:16;13.02;;;10.68;;
59474;SDS011;45288;51.136;16.928;2022-08-19T03:06:44;15.57;;;11.03;;
59474;SDS011;45288;51.136;16.928;2022-08-19T03:09:10;12.98;;;10.77;;
59474;SDS011;45288;51.136;16.928;2022-08-19T03:11:36;14.68;;;10.85;;
59474;SDS011;45288;51.136;16.928;2022-08-19T03:14:03;14.43;;;10.77;;
59474;SDS011;45288;51.136;16.928;2022-08-19T03:16:30;12.85;;;11.43;;
59474;SDS011;45288;51.136;16.928;2022-08-19T03:18:56;11.98;;;10.75;;
59474;SDS011;45288;51.136;16.928;2022-08-19T03:21:23;12.80;;;10.82;;
59474;SDS011;45288;51.136;16.928;2022-08-19T03:23:49;14.98;;;11.38;;
59474;SDS011;45288;51.136;16.928;2022-08-19T03:26:15;14.82;;;11.05;;
59474;SDS011;45288;51.136;16.928;2022-08-19T03:28:41;15.97;;;11.80;;
59474;SDS011;45288;51.136;16.928;2022-08-19T03:31:09;13.30;;;11.40;;
59474;SDS011;45288;51.136;16.928;2022-08-19T03:33:35;12.60;;;10.82;;
59474;SDS011;45288;51.136;16.928;2022-08-19T03:36:11;14.68;;;11.65;;
59474;SDS011;45288;51.136;16.928;2022-08-19T03:38:39;13.40;;;11.07;;
59474;SDS011;45288;51.136;16.928;2022-08-19T03:41:07;13.30;;;11.00;;
59474;SDS011;45288;51.136;16.928;2022-08-19T03:43:34;13.32;;;11.50;;
59474;SDS011;45288;51.136;16.928;2022-08-19T03:46:04;12.90;;;11.10;;
59474;SDS011;45288;51.136;16.928;2022-08-19T03:48:30;14.82;;;11.82;;
59474;SDS011;45288;51.136;16.928;2022-08-19T03:50:56;13.27;;;11.60;;
59474;SDS011;45288;51.136;16.928;2022-08-19T03:53:24;13.52;;;11.23;;
59474;SDS011;45288;51.136;16.928;2022-08-19T03:55:51;16.65;;;11.88;;
59474;SDS011;45288;51.136;16.928;2022-08-19T03:58:17;12.93;;;11.50;;
59474;SDS011;45288;51.136;16.928;2022-08-19T04:00:42;13.87;;;11.27;;
59474;SDS011;45288;51.136;16.928;2022-08-19T04:03:08;15.57;;;12.00;;
59474;SDS011;45288;51.136;16.928;2022-08-19T04:05:34;13.13;;;11.57;;
59474;SDS011;45288;51.136;16.928;2022-08-19T04:08:00;16.07;;;11.67;;
59474;SDS011;45288;51.136;16.928;2022-08-19T04:10:26;15.43;;;12.32;;
59474;SDS011;45288;51.136;16.928;2022-08-19T04:12:53;14.73;;;12.25;;
59474;SDS011;45288;51.136;16.928;2022-08-19T04:15:18;15.57;;;12.27;;
59474;SDS011;45288;51.136;16.928;2022-08-19T04:17:44;14.65;;;12.00;;
59474;SDS011;45288;51.136;16.928;2022-08-19T04:20:10;15.37;;;12.70;;
59474;SDS011;45288;51.136;16.928;2022-08-19T04:22:36;16.33;;;12.77;;
59474;SDS011;45288;51.136;16.928;2022-08-19T04:25:02;13.83;;;11.10;;
59474;SDS011;45288;51.136;16.928;2022-08-19T04:27:28;16.05;;;12.95;;
59474;SDS011;45288;51.136;16.928;2022-08-19T04:29:54;13.63;;;12.20;;
59474;SDS011;45288;51.136;16.928;2022-08-19T04:32:20;16.60;;;12.63;;
59474;SDS011;45288;51.136;16.928;2022-08-19T04:34:46;18.17;;;12.40;;
59474;SDS011;45288;51.136;16.928;2022-08-19T04:37:11;16.02;;;12.48;;
59474;SDS011;45288;51.136;16.928;2022-08-19T04:39:38;15.73;;;12.48;;
59474;SDS011;45288;51.136;16.928;2022-08-19T04:42:22;23.95;;;13.88;;
59474;SDS011;45288;51.136;16.928;2022-08-19T04:45:08;19.25;;;12.85;;
59474;SDS011;45288;51.136;16.928;2022-08-19T04:47:38;17.70;;;12.45;;
59474;SDS011;45288;51.136;16.928;2022-08-19T04:50:05;15.13;;;13.52;;
59474;SDS011;45288;51.136;16.928;2022-08-19T04:52:31;19.35;;;13.50;;
59474;SDS011;45288;51.136;16.928;2022-08-19T04:54:57;19.37;;;12.97;;
59474;SDS011;45288;51.136;16.928;2022-08-19T04:57:23;16.77;;;13.15;;
59474;SDS011;45288;51.136;16.928;2022-08-19T04:59:49;18.48;;;13.65;;
59474;SDS011;45288;51.136;16.928;2022-08-19T05:02:18;27.58;;;13.40;;
59474;SDS011;45288;51.136;16.928;2022-08-19T05:04:44;17.88;;;13.35;;
59474;SDS011;45288;51.136;16.928;2022-08-19T05:07:10;18.30;;;13.87;;
59474;SDS011;45288;51.136;16.928;2022-08-19T05:09:35;23.05;;;14.13;;
59474;SDS011;45288;51.136;16.928;2022-08-19T05:12:01;20.60;;;13.77;;
59474;SDS011;45288;51.136;16.928;2022-08-19T05:14:27;19.50;;;14.30;;
59474;SDS011;45288;51.136;16.928;2022-08-19T05:16:52;19.00;;;13.65;;
59474;SDS011;45288;51.136;16.928;2022-08-19T05:19:18;20.13;;;13.90;;
59474;SDS011;45288;51.136;16.928;2022-08-19T05:22:02;20.85;;;15.18;;
59474;SDS011;45288;51.136;16.928;2022-08-19T05:24:47;19.67;;;13.48;;
59474;SDS011;45288;51.136;16.928;2022-08-19T05:27:12;22.27;;;14.43;;
59474;SDS011;45288;51.136;16.928;2022-08-19T05:29:39;25.50;;;14.45;;
59474;SDS011;45288;51.136;16.928;2022-08-19T05:32:05;20.23;;;15.37;;
59474;SDS011;45288;51.136;16.928;2022-08-19T05:34:34;20.02;;;13.82;;
59474;SDS011;45288;51.136;16.928;2022-08-19T05:37:01;17.73;;;14.17;;
59474;SDS011;45288;51.136;16.928;2022-08-19T05:39:28;18.55;;;14.25;;
59474;SDS011;45288;51.136;16.928;2022-08-19T05:41:55;22.60;;;15.13;;
59474;SDS011;45288;51.136;16.928;2022-08-19T05:44:23;20.58;;;14.05;;
59474;SDS011;45288;51.136;16.928;2022-08-19T05:46:49;22.33;;;14.20;;
59474;SDS011;45288;51.136;16.928;2022-08-19T05:49:18;24.20;;;14.05;;
59474;SDS011;45288;51.136;16.928;2022-08-19T05:51:44;24.43;;;14.73;;
59474;SDS011;45288;51.136;16.928;2022-08-19T05:54:09;18.92;;;13.77;;
59474;SDS011;45288;51.136;16.928;2022-08-19T05:56:39;19.25;;;14.20;;
59474;SDS011;45288;51.136;16.928;2022-08-19T05:59:05;19.50;;;14.15;;
59474;SDS011;45288;51.136;16.928;2022-08-19T06:01:34;22.48;;;14.63;;
59474;SDS011;45288;51.136;16.928;2022-08-19T06:04:00;17.77;;;13.77;;
59474;SDS011;45288;51.136;16.928;2022-08-19T06:06:25;18.13;;;13.85;;
59474;SDS011;45288;51.136;16.928;2022-08-19T06:08:51;16.35;;;13.45;;
59474;SDS011;45288;51.136;16.928;2022-08-19T06:11:18;17.37;;;14.03;;
59474;SDS011;45288;51.136;16.928;2022-08-19T06:13:45;17.40;;;14.20;;
59474;SDS011;45288;51.136;16.928;2022-08-19T06:16:13;15.23;;;13.68;;
59474;SDS011;45288;51.136;16.928;2022-08-19T06:18:44;16.67;;;13.07;;
59474;SDS011;45288;51.136;16.928;2022-08-19T06:21:10;17.53;;;13.50;;
59474;SDS011;45288;51.136;16.928;2022-08-19T06:23:36;16.70;;;14.40;;
59474;SDS011;45288;51.136;16.928;2022-08-19T06:26:01;18.63;;;13.57;;
59474;SDS011;45288;51.136;16.928;2022-08-19T06:28:27;17.27;;;13.10;;
59474;SDS011;45288;51.136;16.928;2022-08-19T06:30:53;16.92;;;13.23;;
59474;SDS011;45288;51.136;16.928;2022-08-19T06:33:18;17.87;;;13.57;;
59474;SDS011;45288;51.136;16.928;2022-08-19T06:35:44;16.10;;;13.17;;
59474;SDS011;45288;51.136;16.928;2022-08-19T06:38:09;16.03;;;13.43;;
59474;SDS011;45288;51.136;16.928;2022-08-19T06:40:36;17.05;;;13.82;;
59474;SDS011;45288;51.136;16.928;2022-08-19T06:43:04;17.23;;;14.73;;
59474;SDS011;45288;51.136;16.928;2022-08-19T06:45:32;17.05;;;13.82;;
59474;SDS011;45288;51.136;16.928;2022-08-19T06:47:58;15.47;;;13.03;;
59474;SDS011;45288;51.136;16.928;2022-08-19T06:50:24;18.13;;;13.32;;
59474;SDS011;45288;51.136;16.928;2022-08-19T06:52:50;15.93;;;13.07;;
59474;SDS011;45288;51.136;16.928;2022-08-19T06:55:15;20.98;;;13.93;;
59474;SDS011;45288;51.136;16.928;2022-08-19T06:57:42;18.07;;;13.97;;
59474;SDS011;45288;51.136;16.928;2022-08-19T07:00:08;16.02;;;13.30;;
59474;SDS011;45288;51.136;16.928;2022-08-19T07:02:39;15.10;;;12.90;;
59474;SDS011;45288;51.136;16.928;2022-08-19T07:05:04;17.13;;;13.23;;
59474;SDS011;45288;51.136;16.928;2022-08-19T07:07:30;15.25;;;12.68;;
59474;SDS011;45288;51.136;16.928;2022-08-19T07:09:56;18.33;;;13.33;;
59474;SDS011;45288;51.136;16.928;2022-08-19T07:12:22;15.05;;;12.43;;
59474;SDS011;45288;51.136;16.928;2022-08-19T07:14:48;13.82;;;12.23;;
59474;SDS011;45288;51.136;16.928;2022-08-19T07:17:16;15.77;;;12.15;;
59474;SDS011;45288;51.136;16.928;2022-08-19T07:19:42;14.23;;;12.50;;
59474;SDS011;45288;51.136;16.928;2022-08-19T07:22:08;14.18;;;12.10;;
59474;SDS011;45288;51.136;16.928;2022-08-19T07:24:34;15.80;;;12.03;;
59474;SDS011;45288;51.136;16.928;2022-08-19T07:27:00;18.17;;;12.38;;
59474;SDS011;45288;51.136;16.928;2022-08-19T07:29:28;13.77;;;12.25;;
59474;SDS011;45288;51.136;16.928;2022-08-19T07:31:55;14.57;;;11.93;;
59474;SDS011;45288;51.136;16.928;2022-08-19T07:34:24;14.77;;;11.43;;
59474;SDS011;45288;51.136;16.928;2022-08-19T07:36:50;13.90;;;11.48;;
59474;SDS011;45288;51.136;16.928;2022-08-19T07:39:18;14.27;;;10.70;;
59474;SDS011;45288;51.136;16.928;2022-08-19T07:41:45;13.38;;;11.25;;
59474;SDS011;45288;51.136;16.928;2022-08-19T07:44:11;14.13;;;11.02;;
59474;SDS011;45288;51.136;16.928;2022-08-19T07:46:38;14.48;;;10.93;;
59474;SDS011;45288;51.136;16.928;2022-08-19T07:49:06;13.93;;;10.38;;
59474;SDS011;45288;51.136;16.928;2022-08-19T07:51:33;15.65;;;10.98;;
59474;SDS011;45288;51.136;16.928;2022-08-19T07:53:58;21.58;;;11.15;;
59474;SDS011;45288;51.136;16.928;2022-08-19T07:56:25;12.32;;;10.18;;
59474;SDS011;45288;51.136;16.928;2022-08-19T07:58:51;12.83;;;10.80;;
59474;SDS011;45288;51.136;16.928;2022-08-19T08:01:18;12.52;;;10.40;;
59474;SDS011;45288;51.136;16.928;2022-08-19T08:03:44;14.77;;;11.10;;
59474;SDS011;45288;51.136;16.928;2022-08-19T08:06:29;12.55;;;10.13;;
59474;SDS011;45288;51.136;16.928;2022-08-19T08:09:14;12.25;;;9.88;;
59474;SDS011;45288;51.136;16.928;2022-08-19T08:11:51;10.95;;;9.20;;
59474;SDS011;45288;51.136;16.928;2022-08-19T08:14:19;10.23;;;9.07;;
59474;SDS011;45288;51.136;16.928;2022-08-19T08:16:45;13.25;;;9.20;;
59474;SDS011;45288;51.136;16.928;2022-08-19T08:19:11;10.30;;;8.48;;
59474;SDS011;45288;51.136;16.928;2022-08-19T08:21:40;10.40;;;8.40;;
59474;SDS011;45288;51.136;16.928;2022-08-19T08:24:06;11.00;;;8.88;;
59474;SDS011;45288;51.136;16.928;2022-08-19T08:26:31;10.83;;;8.60;;
59474;SDS011;45288;51.136;16.928;2022-08-19T08:28:57;12.10;;;9.07;;
59474;SDS011;45288;51.136;16.928;2022-08-19T08:31:23;12.02;;;9.50;;
59474;SDS011;45288;51.136;16.928;2022-08-19T08:33:49;12.53;;;8.77;;
59474;SDS011;45288;51.136;16.928;2022-08-19T08:36:15;10.73;;;8.63;;
59474;SDS011;45288;51.136;16.928;2022-08-19T08:38:41;11.00;;;9.05;;
59474;SDS011;45288;51.136;16.928;2022-08-19T08:41:54;9.85;;;8.85;;
59474;SDS011;45288;51.136;16.928;2022-08-19T08:43:53;10.00;;;9.00;;
59474;SDS011;45288;51.136;16.928;2022-08-19T08:46:41;12.07;;;9.63;;
59474;SDS011;45288;51.136;16.928;2022-08-19T08:49:09;12.02;;;9.55;;
59474;SDS011;45288;51.136;16.928;2022-08-19T08:51:41;12.95;;;9.70;;
59474;SDS011;45288;51.136;16.928;2022-08-19T08:54:08;11.52;;;9.73;;
59474;SDS011;45288;51.136;16.928;2022-08-19T08:56:37;11.57;;;9.90;;
59474;SDS011;45288;51.136;16.928;2022-08-19T08:59:05;11.98;;;9.68;;
59474;SDS011;45288;51.136;16.928;2022-08-19T09:01:33;11.98;;;10.10;;
59474;SDS011;45288;51.136;16.928;2022-08-19T09:03:59;15.13;;;9.47;;
59474;SDS011;45288;51.136;16.928;2022-08-19T09:08:55;14.30;;;9.88;;
59474;SDS011;45288;51.136;16.928;2022-08-19T09:16:39;13.30;;;10.13;;
59474;SDS011;45288;51.136;16.928;2022-08-19T09:19:06;10.90;;;9.65;;
59474;SDS011;45288;51.136;16.928;2022-08-19T09:21:32;12.00;;;9.75;;
59474;SDS011;45288;51.136;16.928;2022-08-19T09:23:58;13.70;;;10.10;;
59474;SDS011;45288;51.136;16.928;2022-08-19T09:26:24;12.48;;;10.20;;
59474;SDS011;45288;51.136;16.928;2022-08-19T09:28:51;12.37;;;10.63;;
59474;SDS011;45288;51.136;16.928;2022-08-19T09:31:19;13.73;;;10.70;;
59474;SDS011;45288;51.136;16.928;2022-08-19T09:33:45;13.67;;;11.23;;
59474;SDS011;45288;51.136;16.928;2022-08-19T09:36:12;15.75;;;13.75;;
59474;SDS011;45288;51.136;16.928;2022-08-19T09:38:39;14.75;;;12.50;;
59474;SDS011;45288;51.136;16.928;2022-08-19T09:41:06;15.20;;;13.15;;
59474;SDS011;45288;51.136;16.928;2022-08-19T09:43:32;17.38;;;13.63;;
59474;SDS011;45288;51.136;16.928;2022-08-19T09:46:02;15.05;;;12.48;;
59474;SDS011;45288;51.136;16.928;2022-08-19T09:48:30;16.48;;;12.63;;
59474;SDS011;45288;51.136;16.928;2022-08-19T09:51:05;13.70;;;11.40;;
59474;SDS011;45288;51.136;16.928;2022-08-19T09:53:31;16.08;;;12.60;;
59474;SDS011;45288;51.136;16.928;2022-08-19T09:55:57;18.88;;;13.63;;
59474;SDS011;45288;51.136;16.928;2022-08-19T09:58:23;18.37;;;14.30;;
59474;SDS011;45288;51.136;16.928;2022-08-19T10:00:56;15.23;;;13.30;;
59474;SDS011;45288;51.136;16.928;2022-08-19T10:03:22;14.43;;;12.40;;
59474;SDS011;45288;51.136;16.928;2022-08-19T10:05:48;14.38;;;12.00;;
59474;SDS011;45288;51.136;16.928;2022-08-19T10:08:24;13.27;;;11.13;;
59474;SDS011;45288;51.136;16.928;2022-08-19T10:10:54;13.82;;;11.82;;
59474;SDS011;45288;51.136;16.928;2022-08-19T10:13:20;16.88;;;12.88;;
59474;SDS011;45288;51.136;16.928;2022-08-19T10:15:47;13.43;;;12.02;;
59474;SDS011;45288;51.136;16.928;2022-08-19T10:18:16;12.52;;;11.20;;
59474;SDS011;45288;51.136;16.928;2022-08-19T10:20:48;14.50;;;11.55;;
59474;SDS011;45288;51.136;16.928;2022-08-19T10:23:14;13.85;;;11.52;;
59474;SDS011;45288;51.136;16.928;2022-08-19T10:25:40;15.30;;;11.63;;
59474;SDS011;45288;51.136;16.928;2022-08-19T10:28:06;13.32;;;11.20;;
59474;SDS011;45288;51.136;16.928;2022-08-19T10:30:33;13.13;;;11.10;;
59474;SDS011;45288;51.136;16.928;2022-08-19T10:32:59;12.43;;;11.10;;
59474;SDS011;45288;51.136;16.928;2022-08-19T10:35:24;12.35;;;11.07;;
59474;SDS011;45288;51.136;16.928;2022-08-19T10:37:52;12.32;;;11.13;;
59474;SDS011;45288;51.136;16.928;2022-08-19T10:40:18;13.03;;;10.90;;
59474;SDS011;45288;51.136;16.928;2022-08-19T10:42:44;12.00;;;10.07;;
59474;SDS011;45288;51.136;16.928;2022-08-19T10:45:09;10.93;;;9.82;;
59474;SDS011;45288;51.136;16.928;2022-08-19T10:47:35;13.18;;;9.82;;
59474;SDS011;45288;51.136;16.928;2022-08-19T10:50:02;11.00;;;9.50;;
59474;SDS011;45288;51.136;16.928;2022-08-19T10:52:47;11.15;;;10.00;;
59474;SDS011;45288;51.136;16.928;2022-08-19T10:55:13;12.68;;;9.88;;
59474;SDS011;45288;51.136;16.928;2022-08-19T10:57:57;15.02;;;9.90;;
59474;SDS011;45288;51.136;16.928;2022-08-19T11:00:24;13.50;;;10.03;;
59474;SDS011;45288;51.136;16.928;2022-08-19T11:02:50;10.93;;;9.80;;
59474;SDS011;45288;51.136;16.928;2022-08-19T11:05:16;12.85;;;9.93;;
59474;SDS011;45288;51.136;16.928;2022-08-19T11:07:42;14.02;;;10.02;;
59474;SDS011;45288;51.136;16.928;2022-08-19T11:10:11;12.35;;;9.93;;
59474;SDS011;45288;51.136;16.928;2022-08-19T11:12:38;11.37;;;9.47;;
59474;SDS011;45288;51.136;16.928;2022-08-19T11:15:07;9.40;;;8.20;;
59474;SDS011;45288;51.136;16.928;2022-08-19T11:17:39;9.77;;;8.60;;
59474;SDS011;45288;51.136;16.928;2022-08-19T11:20:09;11.13;;;9.30;;
59474;SDS011;45288;51.136;16.928;2022-08-19T11:22:35;10.38;;;9.38;;
59474;SDS011;45288;51.136;16.928;2022-08-19T11:25:01;10.93;;;9.57;;
59474;SDS011;45288;51.136;16.928;2022-08-19T11:27:27;12.93;;;9.82;;
59474;SDS011;45288;51.136;16.928;2022-08-19T11:29:54;11.38;;;10.25;;
59474;SDS011;45288;51.136;16.928;2022-08-19T11:32:19;14.57;;;11.20;;
59474;SDS011;45288;51.136;16.928;2022-08-19T11:34:45;11.77;;;10.57;;
59474;SDS011;45288;51.136;16.928;2022-08-19T11:37:11;11.03;;;9.93;;
59474;SDS011;45288;51.136;16.928;2022-08-19T11:39:36;12.77;;;10.13;;
59474;SDS011;45288;51.136;16.928;2022-08-19T11:42:03;12.57;;;10.68;;
59474;SDS011;45288;51.136;16.928;2022-08-19T11:44:49;11.00;;;9.60;;
59474;SDS011;45288;51.136;16.928;2022-08-19T11:47:15;11.18;;;8.82;;
59474;SDS011;45288;51.136;16.928;2022-08-19T11:49:41;10.55;;;8.70;;
59474;SDS011;45288;51.136;16.928;2022-08-19T11:52:07;8.20;;;7.40;;
59474;SDS011;45288;51.136;16.928;2022-08-19T11:54:33;8.07;;;7.00;;
59474;SDS011;45288;51.136;16.928;2022-08-19T11:56:58;7.53;;;6.83;;
59474;SDS011;45288;51.136;16.928;2022-08-19T11:59:24;10.85;;;6.82;;
59474;SDS011;45288;51.136;16.928;2022-08-19T12:01:52;9.25;;;7.05;;
59474;SDS011;45288;51.136;16.928;2022-08-19T12:04:17;8.48;;;6.68;;
59474;SDS011;45288;51.136;16.928;2022-08-19T12:06:43;7.75;;;6.72;;
59474;SDS011;45288;51.136;16.928;2022-08-19T12:09:09;7.43;;;6.47;;
59474;SDS011;45288;51.136;16.928;2022-08-19T12:11:35;6.70;;;6.03;;
59474;SDS011;45288;51.136;16.928;2022-08-19T12:14:02;7.07;;;6.38;;
59474;SDS011;45288;51.136;16.928;2022-08-19T12:16:28;7.90;;;6.37;;
59474;SDS011;45288;51.136;16.928;2022-08-19T12:18:54;8.35;;;6.63;;
59474;SDS011;45288;51.136;16.928;2022-08-19T12:21:25;7.40;;;6.60;;
59474;SDS011;45288;51.136;16.928;2022-08-19T12:23:52;7.35;;;6.57;;
59474;SDS011;45288;51.136;16.928;2022-08-19T12:26:18;8.45;;;6.72;;
59474;SDS011;45288;51.136;16.928;2022-08-19T12:28:44;7.43;;;6.40;;
59474;SDS011;45288;51.136;16.928;2022-08-19T12:31:10;7.00;;;6.40;;
59474;SDS011;45288;51.136;16.928;2022-08-19T12:33:37;7.20;;;6.50;;
59474;SDS011;45288;51.136;16.928;2022-08-19T12:36:04;7.13;;;6.43;;
59474;SDS011;45288;51.136;16.928;2022-08-19T12:38:31;7.85;;;6.40;;
59474;SDS011;45288;51.136;16.928;2022-08-19T12:40:57;6.68;;;5.97;;
59474;SDS011;45288;51.136;16.928;2022-08-19T12:43:23;6.57;;;5.80;;
59474;SDS011;45288;51.136;16.928;2022-08-19T12:45:48;6.80;;;6.10;;
59474;SDS011;45288;51.136;16.928;2022-08-19T12:48:14;6.80;;;6.03;;
59474;SDS011;45288;51.136;16.928;2022-08-19T12:50:40;7.40;;;5.77;;
59474;SDS011;45288;51.136;16.928;2022-08-19T12:53:06;6.63;;;5.57;;
59474;SDS011;45288;51.136;16.928;2022-08-19T12:55:32;8.60;;;5.90;;
59474;SDS011;45288;51.136;16.928;2022-08-19T12:57:58;6.15;;;5.55;;
59474;SDS011;45288;51.136;16.928;2022-08-19T13:00:23;6.47;;;5.15;;
59474;SDS011;45288;51.136;16.928;2022-08-19T13:02:50;6.07;;;4.95;;
59474;SDS011;45288;51.136;16.928;2022-08-19T13:05:18;7.50;;;5.07;;
59474;SDS011;45288;51.136;16.928;2022-08-19T13:07:48;5.55;;;5.03;;
59474;SDS011;45288;51.136;16.928;2022-08-19T13:10:14;7.33;;;5.30;;
59474;SDS011;45288;51.136;16.928;2022-08-19T13:12:41;7.72;;;5.40;;
59474;SDS011;45288;51.136;16.928;2022-08-19T13:15:07;8.35;;;5.60;;
59474;SDS011;45288;51.136;16.928;2022-08-19T13:17:33;6.20;;;5.60;;
59474;SDS011;45288;51.136;16.928;2022-08-19T13:19:59;8.00;;;5.80;;
59474;SDS011;45288;51.136;16.928;2022-08-19T13:22:24;7.43;;;5.65;;
59474;SDS011;45288;51.136;16.928;2022-08-19T13:24:50;9.27;;;5.50;;
59474;SDS011;45288;51.136;16.928;2022-08-19T13:27:16;6.50;;;5.68;;
59474;SDS011;45288;51.136;16.928;2022-08-19T13:29:42;6.27;;;5.47;;
59474;SDS011;45288;51.136;16.928;2022-08-19T13:32:26;7.40;;;5.53;;
59474;SDS011;45288;51.136;16.928;2022-08-19T13:35:10;7.07;;;6.00;;
59474;SDS011;45288;51.136;16.928;2022-08-19T13:37:36;6.28;;;5.63;;
59474;SDS011;45288;51.136;16.928;2022-08-19T13:40:19;6.63;;;5.87;;
59474;SDS011;45288;51.136;16.928;2022-08-19T13:42:46;6.30;;;5.70;;
59474;SDS011;45288;51.136;16.928;2022-08-19T13:45:13;8.88;;;6.28;;
59474;SDS011;45288;51.136;16.928;2022-08-19T13:47:39;9.25;;;6.50;;
59474;SDS011;45288;51.136;16.928;2022-08-19T13:50:10;10.15;;;6.40;;
59474;SDS011;45288;51.136;16.928;2022-08-19T13:52:36;10.75;;;6.40;;
59474;SDS011;45288;51.136;16.928;2022-08-19T13:55:02;7.70;;;6.03;;
59474;SDS011;45288;51.136;16.928;2022-08-19T13:57:29;7.85;;;6.30;;
59474;SDS011;45288;51.136;16.928;2022-08-19T13:59:56;8.63;;;6.30;;
59474;SDS011;45288;51.136;16.928;2022-08-19T14:02:23;9.63;;;6.37;;
59474;SDS011;45288;51.136;16.928;2022-08-19T14:04:49;7.78;;;6.28;;
59474;SDS011;45288;51.136;16.928;2022-08-19T14:07:14;7.93;;;6.40;;
59474;SDS011;45288;51.136;16.928;2022-08-19T14:09:40;8.63;;;6.33;;
59474;SDS011;45288;51.136;16.928;2022-08-19T14:12:06;7.43;;;6.53;;
59474;SDS011;45288;51.136;16.928;2022-08-19T14:14:31;12.10;;;6.90;;
59474;SDS011;45288;51.136;16.928;2022-08-19T14:16:57;9.02;;;6.68;;
59474;SDS011;45288;51.136;16.928;2022-08-19T14:19:23;7.77;;;6.53;;
59474;SDS011;45288;51.136;16.928;2022-08-19T14:21:49;8.00;;;6.22;;
59474;SDS011;45288;51.136;16.928;2022-08-19T14:24:14;7.78;;;6.20;;